Time;durP1;ratioP1;P1;durP2;ratioP2;P2;SDS_P1;SDS_P2;PMS_P1;PMS_P2;Temp;Humidity;BMP_temperature;BMP_pressure;BME280_temperature;BME280_humidity;BME280_pressure;Samples;Min_cycle;Max_cycle;Signal;HPM_P1;HPM_P2
2022/12/19 00:01:15;;;;;;;18.53;12.27;;;5.20;99.90;;;;;;5019766;28;20193;-84
2022/12/19 00:03:43;;;;;;;17.27;11.73;;;5.30;99.90;;;;;;5037843;28;20181;-83
2022/12/19 00:06:09;;;;;;;17.13;11.43;;;5.30;99.90;;;;;;5034709;28;20165;-82
2022/12/19 00:08:35;;;;;;;17.70;11.33;;;5.30;99.90;;;;;;5070568;28;20173;-87
2022/12/19 00:11:01;;;;;;;18.37;11.77;;;5.30;99.90;;;;;;5071797;28;20207;-83
2022/12/19 00:13:29;;;;;;;17.77;10.80;;;5.40;99.90;;;;;;5039219;28;20233;-87
2022/12/19 00:16:07;;;;;;;17.17;11.87;;;5.50;99.90;;;;;;5035933;28;20227;-84
2022/12/19 00:18:33;;;;;;;19.37;12.33;;;5.50;99.90;;;;;;5034435;28;20169;-85
2022/12/19 00:21:02;;;;;;;16.43;10.67;;;5.50;99.90;;;;;;5036031;28;20717;-84
2022/12/19 00:23:31;;;;;;;19.40;12.43;;;5.50;99.90;;;;;;5034628;28;20204;-85
2022/12/19 00:26:14;;;;;;;20.70;13.10;;;5.50;99.90;;;;;;5034266;28;20522;-83
2022/12/19 00:28:41;;;;;;;19.37;12.17;;;5.60;99.90;;;;;;5034490;28;20188;-86
2022/12/19 00:31:07;;;;;;;17.70;12.10;;;5.60;99.90;;;;;;5035262;28;20230;-85
2022/12/19 00:33:33;;;;;;;19.97;12.63;;;5.60;99.90;;;;;;5035231;28;20186;-85
2022/12/19 00:36:00;;;;;;;16.93;11.30;;;5.50;99.90;;;;;;5034615;28;20200;-84
2022/12/19 00:38:28;;;;;;;19.87;12.90;;;5.60;99.90;;;;;;5039117;28;20618;-85
2022/12/19 00:41:23;;;;;;;17.47;11.80;;;5.60;99.90;;;;;;5037887;28;20204;-83
2022/12/19 00:43:58;;;;;;;17.90;11.83;;;5.50;99.90;;;;;;5040354;28;20186;-86
2022/12/19 00:46:24;;;;;;;16.67;11.73;;;5.60;99.90;;;;;;5041484;28;20169;-84
2022/12/19 00:49:02;;;;;;;19.10;13.07;;;5.60;99.90;;;;;;5038517;28;20192;-84
2022/12/19 00:51:31;;;;;;;19.17;11.70;;;5.60;99.90;;;;;;5035128;28;20197;-85
2022/12/19 00:53:59;;;;;;;20.47;12.37;;;5.60;99.90;;;;;;5035711;28;20236;-86
2022/12/19 00:56:30;;;;;;;20.70;11.87;;;5.60;99.90;;;;;;5047408;28;20174;-85
2022/12/19 00:58:56;;;;;;;18.77;12.30;;;5.60;99.90;;;;;;5052456;28;20186;-84
2022/12/19 01:01:29;;;;;;;22.10;14.97;;;5.70;99.90;;;;;;5055009;28;20193;-84
2022/12/19 01:03:58;;;;;;;16.53;11.47;;;5.70;99.90;;;;;;5054327;28;20201;-85
2022/12/19 01:06:28;;;;;;;18.83;11.77;;;5.70;99.90;;;;;;5046176;28;20181;-85
2022/12/19 01:08:55;;;;;;;16.77;11.43;;;5.70;99.90;;;;;;5043602;28;20166;-84
2022/12/19 01:14:08;;;;;;;16.30;12.20;;;5.80;99.90;;;;;;5040588;28;20205;-84
2022/12/19 01:16:34;;;;;;;15.80;11.27;;;5.90;99.90;;;;;;5039147;28;20578;-84
2022/12/19 01:18:59;;;;;;;16.93;10.70;;;5.90;99.90;;;;;;5038720;28;20181;-84
2022/12/19 01:21:25;;;;;;;16.07;10.40;;;5.90;99.90;;;;;;5046149;28;20560;-86
2022/12/19 01:23:51;;;;;;;14.80;10.63;;;6.00;99.90;;;;;;5024254;28;20653;-84
2022/12/19 01:26:17;;;;;;;16.43;10.47;;;6.10;99.90;;;;;;5039249;28;20161;-83
2022/12/19 01:28:44;;;;;;;14.67;9.80;;;6.10;99.90;;;;;;5036446;28;20181;-83
2022/12/19 01:31:12;;;;;;;13.73;10.17;;;6.10;99.90;;;;;;5037156;28;20166;-84
2022/12/19 01:33:37;;;;;;;14.57;10.07;;;6.20;99.90;;;;;;5036805;28;20169;-85
2022/12/19 01:36:06;;;;;;;13.23;8.87;;;6.30;99.90;;;;;;5037168;28;20259;-85
2022/12/19 01:38:34;;;;;;;12.97;9.63;;;6.40;99.90;;;;;;5037120;28;20225;-84
2022/12/19 01:41:01;;;;;;;13.73;9.70;;;6.40;99.90;;;;;;5021956;28;20174;-85
2022/12/19 01:43:52;;;;;;;13.37;8.83;;;6.50;99.90;;;;;;5057580;28;20205;-83
2022/12/19 01:46:38;;;;;;;12.60;8.30;;;6.70;99.90;;;;;;5045820;28;20174;-84
2022/12/19 01:49:23;;;;;;;13.33;9.07;;;6.60;99.90;;;;;;5041297;28;20174;-84
2022/12/19 01:51:51;;;;;;;11.17;8.47;;;6.70;99.90;;;;;;5041328;28;20162;-84
2022/12/19 01:54:23;;;;;;;13.30;9.03;;;6.70;99.90;;;;;;5058088;28;20178;-85
2022/12/19 01:57:17;;;;;;;13.40;9.13;;;6.70;99.90;;;;;;5056489;28;20173;-84
2022/12/19 02:00:46;;;;;;;13.00;8.87;;;6.70;99.90;;;;;;5037274;28;20227;-84
2022/12/19 02:03:25;;;;;;;16.10;8.57;;;6.80;99.90;;;;;;5051759;28;20203;-86
2022/12/19 02:05:52;;;;;;;12.47;9.13;;;6.80;99.90;;;;;;5054513;28;20181;-84
2022/12/19 02:08:18;;;;;;;11.37;8.53;;;6.80;99.90;;;;;;5040116;28;20182;-85
2022/12/19 02:10:47;;;;;;;10.97;8.03;;;6.90;99.90;;;;;;5020994;28;20209;-84
2022/12/19 02:13:15;;;;;;;11.97;8.63;;;6.90;99.90;;;;;;5036346;28;20188;-84
2022/12/19 02:16:00;;;;;;;12.57;8.87;;;6.90;99.90;;;;;;5036629;28;20193;-84
2022/12/19 02:18:38;;;;;;;11.73;7.93;;;6.90;99.90;;;;;;5036861;28;20174;-85
2022/12/19 02:21:20;;;;;;;12.70;9.93;;;7.00;99.90;;;;;;5035411;28;20177;-84
2022/12/19 02:24:21;;;;;;;11.57;8.33;;;7.00;99.90;;;;;;5035573;28;20172;-85
2022/12/19 02:26:57;;;;;;;13.80;8.60;;;7.00;99.90;;;;;;5036378;28;20177;-85
2022/12/19 02:29:42;;;;;;;14.07;8.87;;;7.00;99.90;;;;;;5035284;28;20162;-85
2022/12/19 02:32:17;;;;;;;10.63;8.07;;;7.10;99.90;;;;;;5035491;28;20180;-84
2022/12/19 02:34:53;;;;;;;10.90;7.97;;;7.10;99.90;;;;;;5035622;28;20702;-84
2022/12/19 02:37:26;;;;;;;11.07;8.07;;;7.10;99.90;;;;;;5035686;28;20184;-84
2022/12/19 02:39:55;;;;;;;11.77;8.70;;;7.10;99.90;;;;;;5037253;28;20173;-84
2022/12/19 02:42:31;;;;;;;10.97;8.70;;;7.10;99.90;;;;;;5037653;28;20240;-86
2022/12/19 02:44:58;;;;;;;12.20;9.30;;;7.10;99.90;;;;;;5037856;28;20173;-87
2022/12/19 02:47:25;;;;;;;11.03;8.87;;;7.20;99.90;;;;;;5054489;28;20245;-87
2022/12/19 02:49:51;;;;;;;13.00;8.80;;;7.10;99.90;;;;;;5041302;28;20243;-85
2022/12/19 02:52:19;;;;;;;11.97;9.03;;;7.20;99.90;;;;;;5052413;28;20178;-85
2022/12/19 02:54:50;;;;;;;10.93;8.57;;;7.20;99.90;;;;;;5054001;28;20178;-84
2022/12/19 02:57:15;;;;;;;11.27;8.60;;;7.20;99.90;;;;;;5053551;28;20208;-82
2022/12/19 03:00:04;;;;;;;11.40;8.57;;;7.20;99.90;;;;;;5052177;28;20177;-82
2022/12/19 03:02:46;;;;;;;11.57;8.67;;;7.20;99.90;;;;;;5044843;28;20216;-85
2022/12/19 03:05:31;;;;;;;13.17;9.17;;;7.20;99.90;;;;;;5035891;28;20174;-84
2022/12/19 03:08:20;;;;;;;12.30;8.73;;;7.20;99.90;;;;;;5035587;28;20231;-83
2022/12/19 03:11:12;;;;;;;10.23;8.53;;;7.20;99.90;;;;;;5075683;28;20192;-84
2022/12/19 03:13:44;;;;;;;11.43;8.07;;;7.20;99.90;;;;;;5042006;28;20169;-85
2022/12/19 03:16:29;;;;;;;12.63;9.53;;;7.20;99.90;;;;;;5036756;28;20220;-84
2022/12/19 03:18:56;;;;;;;13.40;9.77;;;7.20;99.90;;;;;;5053191;28;20180;-83
2022/12/19 03:21:37;;;;;;;11.33;9.00;;;7.30;99.90;;;;;;5035563;28;20204;-85
2022/12/19 03:24:08;;;;;;;11.30;9.17;;;7.20;99.90;;;;;;5034709;28;20184;-85
2022/12/19 03:26:41;;;;;;;13.00;9.17;;;7.20;99.90;;;;;;5049113;28;20158;-85
2022/12/19 03:29:14;;;;;;;12.70;9.27;;;7.30;99.90;;;;;;5055455;28;20209;-84
2022/12/19 03:31:42;;;;;;;10.90;8.27;;;7.30;99.90;;;;;;5047196;28;20196;-83
2022/12/19 03:34:49;;;;;;;11.70;8.70;;;7.30;99.90;;;;;;5049461;28;20170;-84
2022/12/19 03:37:19;;;;;;;11.93;8.43;;;7.40;99.90;;;;;;5053024;28;20185;-83
2022/12/19 03:39:51;;;;;;;12.80;9.27;;;7.40;99.90;;;;;;5053705;28;20183;-83
2022/12/19 03:45:12;;;;;;;10.77;7.90;;;7.50;99.90;;;;;;5036530;28;20708;-84
2022/12/19 03:47:48;;;;;;;11.77;9.03;;;7.70;99.90;;;;;;5033261;28;20178;-84
2022/12/19 03:50:14;;;;;;;10.57;7.80;;;7.50;99.90;;;;;;5033236;28;20205;-85
2022/12/19 03:52:59;;;;;;;11.70;8.10;;;7.70;99.90;;;;;;5033092;28;20372;-84
2022/12/19 03:55:46;;;;;;;12.90;8.33;;;7.60;99.90;;;;;;5033149;28;20524;-84
2022/12/19 03:58:34;;;;;;;10.90;7.87;;;7.60;99.90;;;;;;5033131;28;20169;-84
2022/12/19 04:01:02;;;;;;;10.70;7.57;;;7.60;99.90;;;;;;5046062;28;20181;-84
2022/12/19 04:03:29;;;;;;;9.83;7.40;;;7.70;99.90;;;;;;5050070;28;20257;-85
2022/12/19 04:05:56;;;;;;;8.93;7.43;;;7.70;99.90;;;;;;5044070;28;20181;-85
2022/12/19 04:08:23;;;;;;;9.83;7.13;;;7.70;99.90;;;;;;5038619;28;20178;-85
2022/12/19 04:11:00;;;;;;;9.63;6.73;;;7.80;99.90;;;;;;5033954;28;20679;-84
2022/12/19 04:13:34;;;;;;;9.37;7.00;;;7.80;99.90;;;;;;5032923;28;20165;-85
2022/12/19 04:16:27;;;;;;;8.53;6.77;;;7.90;99.90;;;;;;5032616;28;20675;-85
2022/12/19 04:19:09;;;;;;;10.03;6.63;;;7.90;99.90;;;;;;5032542;28;20178;-84
2022/12/19 04:21:45;;;;;;;9.47;7.30;;;8.00;99.90;;;;;;5033643;28;20583;-85
2022/12/19 04:24:34;;;;;;;9.00;6.40;;;8.00;99.90;;;;;;5031004;28;20181;-86
2022/12/19 04:27:03;;;;;;;9.33;6.93;;;8.00;99.90;;;;;;5016579;28;20189;-83
2022/12/19 04:29:32;;;;;;;9.80;6.50;;;8.10;99.90;;;;;;5032549;28;20232;-84
2022/12/19 04:31:58;;;;;;;8.13;6.67;;;8.10;99.90;;;;;;5032648;28;20614;-84
2022/12/19 04:34:24;;;;;;;9.00;6.67;;;8.20;99.90;;;;;;5032765;28;20174;-84
2022/12/19 04:36:50;;;;;;;9.53;6.93;;;8.20;99.90;;;;;;5032349;28;20699;-84
2022/12/19 04:39:16;;;;;;;8.13;5.90;;;8.20;99.90;;;;;;5032028;28;20178;-83
2022/12/19 04:41:41;;;;;;;7.93;6.10;;;8.20;99.90;;;;;;5033643;28;20206;-83
2022/12/19 04:44:08;;;;;;;8.77;6.57;;;8.20;99.90;;;;;;5032455;28;20517;-84
2022/12/19 04:46:34;;;;;;;8.73;6.00;;;8.20;99.90;;;;;;5034623;28;20166;-84
2022/12/19 04:49:02;;;;;;;7.83;6.17;;;8.30;99.90;;;;;;5036197;28;20180;-84
2022/12/19 04:51:27;;;;;;;9.37;6.40;;;8.30;99.90;;;;;;5036153;28;20173;-83
2022/12/19 04:53:53;;;;;;;8.03;6.40;;;8.20;99.90;;;;;;5055061;28;20652;-84
2022/12/19 04:56:18;;;;;;;8.13;6.17;;;8.30;99.90;;;;;;5059106;28;20204;-84
2022/12/19 04:58:44;;;;;;;7.83;6.27;;;8.30;99.90;;;;;;5049105;28;20181;-83
2022/12/19 05:01:12;;;;;;;11.33;6.07;;;8.30;99.90;;;;;;5038848;28;20173;-84
2022/12/19 05:03:38;;;;;;;9.77;6.07;;;8.30;99.90;;;;;;5036744;28;20197;-85
2022/12/19 05:06:12;;;;;;;7.30;5.83;;;8.40;99.90;;;;;;5036339;28;20197;-84
2022/12/19 05:08:39;;;;;;;9.20;6.10;;;8.40;99.90;;;;;;5035904;28;20189;-84
2022/12/19 05:11:06;;;;;;;10.07;5.87;;;8.40;99.90;;;;;;5036172;28;20216;-84
2022/12/19 05:13:32;;;;;;;8.77;6.13;;;8.40;99.90;;;;;;5035435;28;20173;-84
2022/12/19 05:16:00;;;;;;;10.50;6.70;;;8.40;99.90;;;;;;5035258;28;20185;-83
2022/12/19 05:18:27;;;;;;;7.80;5.93;;;8.40;99.90;;;;;;5051487;28;20162;-84
2022/12/19 05:20:52;;;;;;;8.03;5.17;;;8.50;99.90;;;;;;5058615;28;20181;-83
2022/12/19 05:23:22;;;;;;;7.27;6.00;;;8.50;99.90;;;;;;5043989;28;20677;-84
2022/12/19 05:25:48;;;;;;;7.70;5.80;;;8.50;99.90;;;;;;5039179;28;20261;-85
2022/12/19 05:28:15;;;;;;;7.07;5.97;;;8.50;99.90;;;;;;5038168;28;20193;-85
2022/12/19 05:30:41;;;;;;;7.47;5.70;;;8.60;99.90;;;;;;5038515;28;20201;-85
2022/12/19 05:33:07;;;;;;;7.00;5.70;;;8.70;99.90;;;;;;5046874;28;20169;-84
2022/12/19 05:35:34;;;;;;;8.07;5.70;;;8.70;99.90;;;;;;5057866;28;20186;-83
2022/12/19 05:38:03;;;;;;;8.77;6.23;;;8.70;99.90;;;;;;5048502;28;20184;-85
2022/12/19 05:40:34;;;;;;;9.03;5.30;;;8.70;99.90;;;;;;5041384;28;20609;-84
2022/12/19 05:43:03;;;;;;;7.67;5.30;;;8.70;99.90;;;;;;5039678;28;20202;-85
2022/12/19 05:45:29;;;;;;;8.93;5.50;;;8.70;99.90;;;;;;5039742;28;20256;-86
2022/12/19 05:47:54;;;;;;;7.50;5.40;;;8.70;99.90;;;;;;5050864;28;20185;-83
2022/12/19 05:50:20;;;;;;;7.00;5.10;;;8.70;99.90;;;;;;5054148;28;20361;-83
2022/12/19 05:52:46;;;;;;;8.23;5.37;;;8.80;99.90;;;;;;5075326;28;20468;-83
2022/12/19 05:55:13;;;;;;;8.20;5.17;;;8.70;99.90;;;;;;5051558;28;20636;-85
2022/12/19 05:57:41;;;;;;;7.47;5.07;;;8.70;99.90;;;;;;5043700;28;20260;-86
2022/12/19 06:00:11;;;;;;;7.17;5.60;;;8.80;99.90;;;;;;5038643;28;20170;-85
2022/12/19 06:02:37;;;;;;;7.67;5.03;;;8.80;99.90;;;;;;5036802;28;20209;-85
2022/12/19 06:05:03;;;;;;;6.03;5.00;;;8.80;99.90;;;;;;5037709;28;20306;-87
2022/12/19 06:07:29;;;;;;;6.07;4.50;;;8.80;99.90;;;;;;5037554;28;20712;-85
2022/12/19 06:09:55;;;;;;;6.30;5.40;;;8.80;99.90;;;;;;5063438;28;20182;-84
2022/12/19 06:12:21;;;;;;;7.13;5.50;;;8.80;99.90;;;;;;5041505;28;20189;-87
2022/12/19 06:14:48;;;;;;;7.40;4.93;;;8.90;99.90;;;;;;5058978;28;20182;-86
2022/12/19 06:17:16;;;;;;;5.63;4.77;;;8.90;99.90;;;;;;5057643;28;20181;-85
2022/12/19 06:19:41;;;;;;;7.13;5.50;;;8.90;99.90;;;;;;5056493;28;20189;-85
2022/12/19 06:22:07;;;;;;;5.53;4.43;;;8.90;99.90;;;;;;5052745;28;20248;-86
2022/12/19 06:24:33;;;;;;;8.50;5.80;;;8.90;99.90;;;;;;5050170;28;20169;-87
2022/12/19 06:26:59;;;;;;;7.97;4.70;;;8.90;99.90;;;;;;5042895;28;20534;-87
2022/12/19 06:29:25;;;;;;;7.00;5.03;;;8.90;99.90;;;;;;5037416;28;20181;-86
2022/12/19 06:31:50;;;;;;;8.03;5.20;;;8.90;99.90;;;;;;5037564;28;20178;-87
2022/12/19 06:34:16;;;;;;;7.70;4.80;;;8.90;99.90;;;;;;5037042;28;20193;-86
2022/12/19 06:36:45;;;;;;;8.50;5.43;;;8.90;99.90;;;;;;5038765;28;20197;-87
2022/12/19 06:39:13;;;;;;;7.57;5.27;;;8.90;99.90;;;;;;5039332;28;20173;-86
2022/12/19 06:44:26;;;;;;;7.00;4.03;;;9.00;99.90;;;;;;5038249;28;20165;-84
2022/12/19 06:46:53;;;;;;;7.30;5.03;;;8.90;99.90;;;;;;5037143;28;20173;-84
2022/12/19 06:49:19;;;;;;;6.83;5.07;;;9.00;99.90;;;;;;5037717;28;20202;-84
2022/12/19 06:51:47;;;;;;;6.83;4.60;;;9.00;99.90;;;;;;5007474;28;20237;-85
2022/12/19 06:54:13;;;;;;;7.80;4.90;;;9.00;99.90;;;;;;5036693;28;20181;-85
2022/12/19 06:56:41;;;;;;;6.67;4.87;;;9.00;99.90;;;;;;5036296;28;20660;-84
2022/12/19 06:59:08;;;;;;;7.43;4.53;;;9.00;99.90;;;;;;5040368;28;20184;-84
2022/12/19 07:01:51;;;;;;;5.67;4.43;;;9.10;99.90;;;;;;5053651;28;20266;-86
2022/12/19 07:04:22;;;;;;;7.50;4.47;;;9.10;99.90;;;;;;5046984;28;20268;-85
2022/12/19 07:06:49;;;;;;;6.97;4.53;;;9.20;99.90;;;;;;5037921;28;20668;-82
2022/12/19 07:09:17;;;;;;;6.37;4.47;;;9.20;99.90;;;;;;5052570;28;20177;-86
2022/12/19 07:11:43;;;;;;;7.13;4.27;;;9.20;99.90;;;;;;5037319;28;20173;-84
2022/12/19 07:14:08;;;;;;;6.00;4.70;;;9.30;99.90;;;;;;5035437;28;20228;-84
2022/12/19 07:16:39;;;;;;;7.73;4.50;;;9.30;99.90;;;;;;5035934;28;20297;-85
2022/12/19 07:19:06;;;;;;;6.17;4.47;;;9.30;99.90;;;;;;5035142;28;20626;-86
2022/12/19 07:21:34;;;;;;;5.87;4.23;;;9.30;99.90;;;;;;5054977;28;20622;-85
2022/12/19 07:23:59;;;;;;;6.97;4.20;;;9.30;99.90;;;;;;5056113;28;20161;-85
2022/12/19 07:26:26;;;;;;;6.77;4.50;;;9.40;99.90;;;;;;5055586;28;20173;-83
2022/12/19 07:28:53;;;;;;;6.57;4.83;;;9.30;99.90;;;;;;5056547;28;20181;-84
2022/12/19 07:31:20;;;;;;;5.93;4.80;;;9.20;99.90;;;;;;5064379;28;20181;-85
2022/12/19 07:33:46;;;;;;;6.30;4.20;;;9.20;99.90;;;;;;5068069;28;20177;-83
2022/12/19 07:36:11;;;;;;;6.13;4.37;;;9.20;99.90;;;;;;5065731;28;20185;-84
2022/12/19 07:38:37;;;;;;;9.03;4.80;;;9.20;99.90;;;;;;5059522;28;20181;-84
2022/12/19 07:41:03;;;;;;;7.17;4.20;;;9.20;99.90;;;;;;5061373;28;20233;-83
2022/12/19 07:43:28;;;;;;;7.87;5.00;;;9.20;99.90;;;;;;5055870;28;20589;-83
2022/12/19 07:45:55;;;;;;;8.23;4.50;;;9.30;99.90;;;;;;5062365;28;20177;-83
2022/12/19 07:48:22;;;;;;;5.83;4.17;;;9.30;99.90;;;;;;5075253;28;20184;-84
2022/12/19 07:50:48;;;;;;;6.97;4.37;;;9.30;99.90;;;;;;5068684;28;20219;-83
2022/12/19 07:53:17;;;;;;;5.77;4.00;;;9.30;99.90;;;;;;5066433;28;20244;-84
2022/12/19 07:55:42;;;;;;;6.73;4.00;;;9.40;99.90;;;;;;5054164;28;20169;-86
2022/12/19 07:58:09;;;;;;;8.13;4.10;;;9.30;99.90;;;;;;5054528;28;20177;-84
2022/12/19 08:00:37;;;;;;;6.13;4.30;;;9.40;99.90;;;;;;5053592;28;20173;-85
2022/12/19 08:03:03;;;;;;;6.27;4.10;;;9.50;99.90;;;;;;5077410;28;20200;-84
2022/12/19 08:05:29;;;;;;;8.10;4.60;;;9.40;99.90;;;;;;5071436;28;20173;-85
2022/12/19 08:07:57;;;;;;;6.23;4.23;;;9.40;99.90;;;;;;5064497;28;20177;-86
2022/12/19 08:10:23;;;;;;;5.60;3.67;;;9.50;99.90;;;;;;5057324;28;20260;-85
2022/12/19 08:12:54;;;;;;;5.47;4.30;;;9.50;99.90;;;;;;5054658;28;20603;-85
2022/12/19 08:15:21;;;;;;;4.97;3.73;;;9.60;99.90;;;;;;5056174;28;20176;-84
2022/12/19 08:17:47;;;;;;;6.03;4.33;;;9.60;99.90;;;;;;5055104;28;20648;-85
2022/12/19 08:20:13;;;;;;;5.07;4.03;;;9.60;99.90;;;;;;5075181;28;20263;-85
2022/12/19 08:22:39;;;;;;;5.97;4.30;;;9.60;99.90;;;;;;5066907;28;20212;-85
2022/12/19 08:25:08;;;;;;;6.60;4.40;;;9.60;99.90;;;;;;5057067;28;20169;-85
2022/12/19 08:27:36;;;;;;;6.80;4.20;;;9.60;99.90;;;;;;5055514;28;20199;-86
2022/12/19 08:30:04;;;;;;;7.57;4.00;;;9.70;99.90;;;;;;5055577;28;20187;-85
2022/12/19 08:32:31;;;;;;;7.40;4.03;;;9.50;99.90;;;;;;5056995;28;20235;-84
2022/12/19 08:34:57;;;;;;;6.40;3.97;;;9.50;99.90;;;;;;5051540;28;20219;-85
2022/12/19 08:37:30;;;;;;;6.00;4.17;;;9.50;99.90;;;;;;5044556;28;20661;-85
2022/12/19 08:39:58;;;;;;;6.57;4.13;;;9.50;99.90;;;;;;5047230;28;20177;-83
2022/12/19 08:42:24;;;;;;;6.30;4.33;;;9.60;99.90;;;;;;5047096;28;20217;-86
2022/12/19 08:44:50;;;;;;;6.83;3.80;;;9.50;99.90;;;;;;5052664;28;20166;-85
2022/12/19 08:47:16;;;;;;;6.07;3.83;;;9.60;99.90;;;;;;5047815;28;20596;-86
2022/12/19 08:49:42;;;;;;;7.53;3.97;;;9.60;99.90;;;;;;5036285;28;20205;-85
2022/12/19 08:52:08;;;;;;;4.77;3.37;;;9.60;99.90;;;;;;5019644;28;20181;-85
2022/12/19 08:54:34;;;;;;;5.10;3.80;;;9.60;99.90;;;;;;5051810;28;20192;-84
2022/12/19 08:57:06;;;;;;;5.20;3.77;;;9.70;99.90;;;;;;5034174;28;20629;-84
2022/12/19 08:59:32;;;;;;;8.00;4.30;;;9.70;99.90;;;;;;5035753;28;20170;-84
2022/12/19 09:02:20;;;;;;;5.63;3.97;;;9.80;99.90;;;;;;5035267;28;20201;-84
2022/12/19 09:04:46;;;;;;;5.07;3.57;;;9.80;99.90;;;;;;5036944;28;20174;-85
2022/12/19 09:07:12;;;;;;;5.13;3.80;;;9.90;99.90;;;;;;5037107;28;20177;-85
2022/12/19 09:09:38;;;;;;;6.63;3.57;;;9.80;99.90;;;;;;5036165;28;20173;-83
2022/12/19 09:12:06;;;;;;;5.90;4.07;;;9.90;99.90;;;;;;5035127;28;20690;-85
2022/12/19 09:14:33;;;;;;;6.23;4.03;;;9.80;99.90;;;;;;5035788;28;20174;-84
2022/12/19 09:17:00;;;;;;;5.10;3.63;;;10.00;99.90;;;;;;5035510;28;20213;-85
2022/12/19 09:19:25;;;;;;;5.70;3.67;;;9.80;99.90;;;;;;5035448;28;20315;-86
2022/12/19 09:21:51;;;;;;;4.83;3.70;;;9.80;99.90;;;;;;5035394;28;20705;-84
2022/12/19 09:24:17;;;;;;;6.23;4.20;;;9.80;99.90;;;;;;5038173;28;20212;-85
2022/12/19 09:26:44;;;;;;;8.13;4.57;;;9.80;99.90;;;;;;5034211;28;20184;-84
2022/12/19 09:29:11;;;;;;;6.90;4.10;;;9.90;99.90;;;;;;5033176;28;20170;-83
2022/12/19 09:31:36;;;;;;;5.03;3.97;;;9.80;99.90;;;;;;5035311;28;20177;-83
2022/12/19 09:34:02;;;;;;;4.60;3.53;;;9.70;99.90;;;;;;5036455;28;20178;-85
2022/12/19 09:36:28;;;;;;;5.60;4.03;;;9.70;99.90;;;;;;5036832;28;20185;-85
2022/12/19 09:38:56;;;;;;;7.30;3.77;;;9.70;99.90;;;;;;5036802;28;20174;-85
2022/12/19 09:41:55;;;;;;;6.03;4.10;;;9.80;99.90;;;;;;5039342;28;20182;-86
2022/12/19 09:45:02;;;;;;;5.63;3.63;;;9.80;99.90;;;;;;5037110;28;20205;-85
2022/12/19 09:47:30;;;;;;;7.40;4.50;;;9.80;99.90;;;;;;5038261;28;20617;-85
2022/12/19 09:49:57;;;;;;;5.83;3.80;;;9.70;99.90;;;;;;5036492;28;20216;-83
2022/12/19 09:52:40;;;;;;;4.73;3.77;;;9.80;99.90;;;;;;5037451;28;20640;-85
2022/12/19 09:55:26;;;;;;;5.77;3.90;;;9.90;99.90;;;;;;5053582;28;20508;-82
2022/12/19 09:58:07;;;;;;;4.87;3.47;;;9.90;99.90;;;;;;5037539;28;20205;-84
2022/12/19 10:00:50;;;;;;;5.83;3.87;;;9.90;99.90;;;;;;5036656;28;20176;-84
2022/12/19 10:03:30;;;;;;;5.60;3.70;;;9.90;99.90;;;;;;5037778;28;20213;-84
2022/12/19 10:06:13;;;;;;;7.00;4.13;;;9.90;99.90;;;;;;5043884;28;20228;-83
2022/12/19 10:08:43;;;;;;;6.43;4.07;;;9.90;99.90;;;;;;5048440;28;20571;-85
2022/12/19 10:11:11;;;;;;;7.47;3.80;;;9.90;99.90;;;;;;5041133;28;20177;-84
2022/12/19 10:13:56;;;;;;;7.83;4.10;;;10.00;99.90;;;;;;5036488;28;20227;-84
2022/12/19 10:16:34;;;;;;;5.87;3.40;;;10.00;99.90;;;;;;5038140;28;20178;-85
2022/12/19 10:19:08;;;;;;;5.73;3.40;;;10.00;99.90;;;;;;5037501;28;20174;-85
2022/12/19 10:22:17;;;;;;;5.17;3.27;;;10.10;99.90;;;;;;5059361;28;20184;-83
2022/12/19 10:25:04;;;;;;;5.50;4.00;;;10.10;99.90;;;;;;5063035;28;20181;-86
2022/12/19 10:27:48;;;;;;;5.70;3.60;;;10.20;99.90;;;;;;5031930;28;20177;-85
2022/12/19 10:30:19;;;;;;;4.73;3.13;;;10.20;99.90;;;;;;5056366;28;20165;-84
2022/12/19 10:32:56;;;;;;;6.77;3.30;;;10.40;99.10;;;;;;5047567;28;20173;-86
2022/12/19 10:35:39;;;;;;;7.43;4.03;;;10.30;98.90;;;;;;5040254;28;20177;-86
2022/12/19 10:38:20;;;;;;;3.87;2.50;;;10.40;98.00;;;;;;5039225;28;20181;-85
2022/12/19 10:41:21;;;;;;;4.90;2.90;;;10.50;97.50;;;;;;5038957;28;20181;-86
2022/12/19 10:43:57;;;;;;;4.03;2.97;;;10.60;95.60;;;;;;5039949;28;20188;-84
2022/12/19 10:46:39;;;;;;;6.40;3.03;;;10.60;94.70;;;;;;5051546;28;20173;-84
2022/12/19 10:49:18;;;;;;;4.03;2.80;;;10.60;93.90;;;;;;5055202;28;20166;-84
2022/12/19 10:51:59;;;;;;;5.00;2.77;;;10.70;93.20;;;;;;5046813;28;20178;-84
2022/12/19 10:54:41;;;;;;;4.47;2.57;;;10.80;92.50;;;;;;5040775;28;20169;-85
2022/12/19 10:57:28;;;;;;;4.37;2.97;;;10.90;90.80;;;;;;5040523;28;20677;-86
2022/12/19 10:59:58;;;;;;;5.67;3.00;;;10.90;89.10;;;;;;5045990;28;20181;-85
2022/12/19 11:02:39;;;;;;;4.27;2.90;;;11.00;86.40;;;;;;5048679;28;20224;-86
2022/12/19 11:05:25;;;;;;;5.77;2.90;;;11.00;85.00;;;;;;5046095;28;20172;-86
2022/12/19 11:08:08;;;;;;;4.40;2.60;;;11.00;83.20;;;;;;5046966;28;20201;-86
2022/12/19 11:10:46;;;;;;;3.70;2.50;;;11.00;81.40;;;;;;5042336;28;20165;-85
2022/12/19 11:13:27;;;;;;;2.70;2.23;;;11.10;80.80;;;;;;5040782;28;20535;-85
2022/12/19 11:15:56;;;;;;;4.13;2.40;;;11.10;78.80;;;;;;5038591;28;20166;-87
2022/12/19 11:18:23;;;;;;;4.87;2.77;;;11.30;79.00;;;;;;5038659;28;20182;-86
2022/12/19 11:20:59;;;;;;;5.43;2.93;;;11.30;77.80;;;;;;5038894;28;20174;-85
2022/12/19 11:23:29;;;;;;;5.57;2.97;;;11.40;75.90;;;;;;5038208;28;20213;-86
2022/12/19 11:25:58;;;;;;;5.37;2.90;;;11.60;74.70;;;;;;5039459;28;20166;-85
2022/12/19 11:28:32;;;;;;;5.60;2.73;;;11.40;73.00;;;;;;5037090;28;20174;-86
2022/12/19 11:31:05;;;;;;;6.00;2.60;;;11.50;72.30;;;;;;5035668;28;20165;-86
2022/12/19 11:33:32;;;;;;;4.87;2.73;;;11.50;71.00;;;;;;5036521;28;20179;-85
2022/12/19 11:36:01;;;;;;;5.40;3.20;;;11.50;69.60;;;;;;5037628;28;20189;-81
2022/12/19 11:38:42;;;;;;;3.70;2.50;;;11.60;69.30;;;;;;5036431;28;20173;-85
2022/12/19 11:41:13;;;;;;;4.30;2.83;;;11.60;67.60;;;;;;5038384;28;20165;-86
2022/12/19 11:43:52;;;;;;;3.80;2.60;;;11.80;67.30;;;;;;5035518;28;20210;-86
2022/12/19 11:46:44;;;;;;;6.20;2.87;;;11.70;64.90;;;;;;5034867;28;20177;-85
2022/12/19 11:49:27;;;;;;;5.13;2.40;;;11.70;64.60;;;;;;5051435;28;20200;-85
2022/12/19 11:52:22;;;;;;;4.27;2.67;;;11.80;63.40;;;;;;5035788;28;20641;-87
2022/12/19 11:55:17;;;;;;;3.97;2.27;;;11.70;64.00;;;;;;5035442;28;20192;-86
2022/12/19 11:57:43;;;;;;;3.47;2.53;;;11.70;63.70;;;;;;5036656;28;20177;-85
2022/12/19 12:00:17;;;;;;;3.50;2.40;;;11.70;64.10;;;;;;5035086;28;20630;-85
2022/12/19 12:03:08;;;;;;;3.43;2.20;;;11.60;63.60;;;;;;5036518;28;20209;-85
2022/12/19 12:05:44;;;;;;;4.37;2.33;;;11.60;63.00;;;;;;5036792;28;20609;-84
2022/12/19 12:08:33;;;;;;;4.13;2.30;;;11.60;61.30;;;;;;5043884;28;20173;-86
2022/12/19 12:11:22;;;;;;;3.40;2.23;;;11.50;61.30;;;;;;5044318;28;20630;-86
2022/12/19 12:14:12;;;;;;;3.73;2.40;;;11.60;61.50;;;;;;5035487;28;20177;-86
2022/12/19 12:17:02;;;;;;;4.63;2.70;;;11.50;60.90;;;;;;5040063;28;20170;-85
2022/12/19 12:19:49;;;;;;;4.43;2.23;;;11.60;59.80;;;;;;5048173;28;20186;-85
2022/12/19 12:22:40;;;;;;;5.00;2.70;;;11.60;58.50;;;;;;5050901;28;20209;-85
2022/12/19 12:25:48;;;;;;;3.37;2.20;;;11.60;59.30;;;;;;5040135;28;20185;-86
2022/12/19 12:28:13;;;;;;;3.33;2.47;;;11.50;58.30;;;;;;4964546;28;20171;-86
2022/12/19 12:31:11;;;;;;;6.20;2.70;;;11.60;59.10;;;;;;4976654;28;20211;-85
2022/12/19 12:34:02;;;;;;;4.47;2.50;;;11.70;58.50;;;;;;5019109;28;20656;-86
2022/12/19 12:36:37;;;;;;;4.50;2.53;;;11.60;58.10;;;;;;5043626;28;20248;-85
2022/12/19 12:39:32;;;;;;;3.83;2.60;;;11.60;58.40;;;;;;5054340;28;20173;-86
2022/12/19 12:42:03;;;;;;;5.40;2.53;;;11.60;57.10;;;;;;5039589;28;20308;-85
2022/12/19 12:44:38;;;;;;;5.03;3.10;;;11.60;56.70;;;;;;5038961;28;20170;-86
2022/12/19 12:47:14;;;;;;;4.60;2.20;;;11.70;57.10;;;;;;5040554;28;20200;-86
2022/12/19 12:49:47;;;;;;;3.30;2.50;;;11.60;56.10;;;;;;5035483;28;20258;-86
2022/12/19 12:52:18;;;;;;;4.27;2.47;;;11.60;57.30;;;;;;5035804;28;20645;-86
2022/12/19 12:54:49;;;;;;;3.90;2.10;;;11.60;57.20;;;;;;5046890;28;20166;-85
2022/12/19 12:57:27;;;;;;;4.60;2.43;;;11.60;56.10;;;;;;5050255;28;20188;-85
2022/12/19 13:00:26;;;;;;;4.27;2.33;;;11.70;55.80;;;;;;5038433;28;20185;-86
2022/12/19 13:03:17;;;;;;;4.73;2.60;;;11.60;54.60;;;;;;5033498;28;20283;-86
2022/12/19 13:05:46;;;;;;;4.23;2.50;;;11.60;55.30;;;;;;5033864;28;20174;-86
2022/12/19 13:08:33;;;;;;;3.37;2.27;;;11.60;55.60;;;;;;5038144;28;20185;-85
2022/12/19 13:11:02;;;;;;;3.73;2.50;;;11.60;55.80;;;;;;5046727;28;20181;-85
2022/12/19 13:13:56;;;;;;;4.00;2.40;;;11.60;55.70;;;;;;5061001;28;20189;-86
2022/12/19 13:16:44;;;;;;;4.73;2.70;;;11.60;55.10;;;;;;5041400;28;20197;-85
2022/12/19 13:19:15;;;;;;;4.57;2.33;;;11.60;54.30;;;;;;5053225;28;20231;-86
2022/12/19 13:22:02;;;;;;;4.00;2.63;;;11.60;55.70;;;;;;5050650;28;20174;-85
2022/12/19 13:24:38;;;;;;;4.27;2.37;;;11.60;55.70;;;;;;5043175;28;20184;-85
2022/12/19 13:27:52;;;;;;;3.93;2.50;;;11.70;56.60;;;;;;5040003;28;20173;-84
2022/12/19 13:30:19;;;;;;;6.43;2.60;;;11.70;55.50;;;;;;4984237;28;20286;-85